createdAt,value
2023-01-22T00:01:16.412Z,36.67
2023-01-22T00:03:46.572Z,36.67
2023-01-22T00:06:14.796Z,37.83
2023-01-22T00:08:41.889Z,35.87
2023-01-22T00:11:10.369Z,34.20
2023-01-22T00:13:37.433Z,36.80
2023-01-22T00:16:04.791Z,35.53
2023-01-22T00:18:32.217Z,34.60
2023-01-22T00:20:59.511Z,35.97
2023-01-22T00:23:26.731Z,36.07
2023-01-22T00:26:05.192Z,35.80
2023-01-22T00:28:32.621Z,36.87
2023-01-22T00:31:05.055Z,36.53
2023-01-22T00:33:33.564Z,37.57
2023-01-22T00:36:07.477Z,37.70
2023-01-22T00:38:35.059Z,35.10
2023-01-22T00:41:03.763Z,37.00
2023-01-22T00:43:31.892Z,33.40
2023-01-22T00:45:59.048Z,37.20
2023-01-22T00:48:27.442Z,35.53
2023-01-22T00:50:54.625Z,35.53
2023-01-22T00:53:21.666Z,34.13
2023-01-22T00:55:52.729Z,32.97
2023-01-22T00:58:20.482Z,31.63
2023-01-22T01:00:47.900Z,32.40
2023-01-22T01:03:27.208Z,31.87
2023-01-22T01:06:02.689Z,30.20
2023-01-22T01:08:32.508Z,32.10
2023-01-22T01:11:05.375Z,31.33
2023-01-22T01:13:38.266Z,30.50
2023-01-22T01:16:14.632Z,31.53
2023-01-22T01:18:42.197Z,31.57
2023-01-22T01:21:09.940Z,32.37
2023-01-22T01:23:37.264Z,33.17
2023-01-22T01:26:11.553Z,31.10
2023-01-22T01:28:41.572Z,31.70
2023-01-22T01:31:11.700Z,32.27
2023-01-22T01:33:39.600Z,31.83
2023-01-22T01:36:11.165Z,31.47
2023-01-22T01:38:38.400Z,30.13
2023-01-22T01:41:06.409Z,32.20
2023-01-22T01:43:35.388Z,32.83
2023-01-22T01:46:04.835Z,30.60
2023-01-22T01:48:39.360Z,31.73
2023-01-22T01:51:19.986Z,35.03
2023-01-22T01:53:49.448Z,34.60
2023-01-22T01:56:25.294Z,33.70
2023-01-22T01:58:58.995Z,32.97
2023-01-22T02:01:27.681Z,33.37
2023-01-22T02:03:55.607Z,33.80
2023-01-22T02:06:22.905Z,33.07
2023-01-22T02:08:50.835Z,32.67
2023-01-22T02:11:20.465Z,31.03
2023-01-22T02:14:13.567Z,30.00
2023-01-22T02:16:40.708Z,27.80
2023-01-22T02:19:08.017Z,29.40
2023-01-22T02:21:38.101Z,28.30
2023-01-22T02:24:08.767Z,30.03
2023-01-22T02:26:37.359Z,28.50
2023-01-22T02:29:08.417Z,29.83
2023-01-22T02:31:37.566Z,31.33
2023-01-22T02:34:06.101Z,30.67
2023-01-22T02:36:35.352Z,31.50
2023-01-22T02:39:03.330Z,24.60
2023-01-22T02:41:31.852Z,30.77
2023-01-22T02:44:00.060Z,30.13
2023-01-22T02:46:27.493Z,29.93
2023-01-22T02:48:54.660Z,30.57
2023-01-22T02:51:22.484Z,28.77
2023-01-22T02:53:50.630Z,28.20
2023-01-22T02:56:18.564Z,29.27
2023-01-22T02:58:45.725Z,28.03
2023-01-22T03:01:20.786Z,27.53
2023-01-22T03:03:59.176Z,28.93
2023-01-22T03:06:28.607Z,27.23
2023-01-22T03:09:00.813Z,27.50
2023-01-22T03:11:31.108Z,26.63
2023-01-22T03:14:23.814Z,27.00
2023-01-22T03:17:12.307Z,25.97
2023-01-22T03:19:58.570Z,26.00
2023-01-22T03:22:26.024Z,26.53
2023-01-22T03:24:53.791Z,25.67
2023-01-22T03:27:25.927Z,26.47
2023-01-22T03:29:53.879Z,25.53
2023-01-22T03:32:21.868Z,24.83
2023-01-22T03:34:49.558Z,25.57
2023-01-22T03:37:16.959Z,23.40
2023-01-22T03:39:46.775Z,22.90
2023-01-22T03:42:25.157Z,19.90
2023-01-22T03:44:52.506Z,22.20
2023-01-22T03:47:19.828Z,21.80
2023-01-22T03:49:46.975Z,20.37
2023-01-22T03:52:13.940Z,19.97
2023-01-22T03:54:40.998Z,20.63
2023-01-22T03:57:09.869Z,20.40
2023-01-22T03:59:39.463Z,20.20
2023-01-22T04:02:07.571Z,18.90
2023-01-22T04:04:45.157Z,20.40
2023-01-22T04:07:12.846Z,18.60
2023-01-22T04:09:40.188Z,19.83
2023-01-22T04:12:08.598Z,19.43
2023-01-22T04:14:35.683Z,19.37
2023-01-22T04:17:03.884Z,19.80
2023-01-22T04:19:51.807Z,19.20
2023-01-22T04:22:39.123Z,18.03
2023-01-22T04:25:09.456Z,19.30
2023-01-22T04:27:37.969Z,15.83
2023-01-22T04:30:06.585Z,18.80
2023-01-22T04:32:34.592Z,18.50
2023-01-22T04:35:27.861Z,17.97
2023-01-22T04:37:58.515Z,18.63
2023-01-22T04:40:27.126Z,19.20
2023-01-22T04:42:55.372Z,18.53
2023-01-22T04:45:23.779Z,18.60
2023-01-22T04:47:51.021Z,17.23
2023-01-22T04:50:24.307Z,17.83
2023-01-22T04:52:52.234Z,18.47
2023-01-22T04:55:20.589Z,18.67
2023-01-22T04:57:58.020Z,17.83
2023-01-22T05:00:26.416Z,18.10
2023-01-22T05:03:01.824Z,17.67
2023-01-22T05:05:30.807Z,14.50
2023-01-22T05:07:59.726Z,18.27
2023-01-22T05:10:28.363Z,17.37
2023-01-22T05:12:55.859Z,16.13
2023-01-22T05:15:25.308Z,18.67
2023-01-22T05:17:56.420Z,16.50
2023-01-22T05:20:23.876Z,16.70
2023-01-22T05:22:51.643Z,16.30
2023-01-22T05:25:23.511Z,14.10
2023-01-22T05:27:50.852Z,16.23
2023-01-22T05:30:30.703Z,16.67
2023-01-22T05:33:01.021Z,16.73
2023-01-22T05:35:29.430Z,16.93
2023-01-22T05:37:57.541Z,15.13
2023-01-22T05:40:24.857Z,17.20
2023-01-22T05:42:53.023Z,17.53
2023-01-22T05:45:22.448Z,15.50
2023-01-22T05:48:13.025Z,12.97
2023-01-22T05:50:49.573Z,13.77
2023-01-22T05:53:16.734Z,16.67
2023-01-22T05:55:43.741Z,15.93
2023-01-22T05:58:11.013Z,16.60
2023-01-22T06:00:42.077Z,14.73
2023-01-22T06:03:11.646Z,15.87
2023-01-22T06:05:46.611Z,16.73
2023-01-22T06:08:15.524Z,15.53
2023-01-22T06:10:49.848Z,15.37
2023-01-22T06:13:18.510Z,17.27
2023-01-22T06:15:49.107Z,15.87
2023-01-22T06:18:36.636Z,16.53
2023-01-22T06:21:06.395Z,11.63
2023-01-22T06:23:34.002Z,15.57
2023-01-22T06:26:02.216Z,16.10
2023-01-22T06:28:30.426Z,16.43
2023-01-22T06:31:05.765Z,15.13
2023-01-22T06:33:37.681Z,15.03
2023-01-22T06:36:06.040Z,14.10
2023-01-22T06:38:33.566Z,15.23
2023-01-22T06:41:03.818Z,15.37
2023-01-22T06:43:32.613Z,15.73
2023-01-22T06:45:59.764Z,16.03
2023-01-22T06:49:02.785Z,15.93
2023-01-22T06:51:30.466Z,15.07
2023-01-22T06:53:57.762Z,16.50
2023-01-22T06:56:24.949Z,16.30
2023-01-22T06:58:52.163Z,13.67
2023-01-22T07:01:19.513Z,15.43
2023-01-22T07:03:46.730Z,15.53
2023-01-22T07:06:15.072Z,15.87
2023-01-22T07:08:42.113Z,15.13
2023-01-22T07:11:09.827Z,14.33
2023-01-22T07:13:36.789Z,15.53
2023-01-22T07:16:05.077Z,15.67
2023-01-22T07:18:32.533Z,15.60
2023-01-22T07:21:04.130Z,15.43
2023-01-22T07:23:31.984Z,14.63
2023-01-22T07:25:59.206Z,15.50
2023-01-22T07:28:26.237Z,16.43
2023-01-22T07:30:53.342Z,16.50
2023-01-22T07:33:20.579Z,16.53
2023-01-22T07:35:57.687Z,16.33
2023-01-22T07:38:27.527Z,16.40
2023-01-22T07:40:59.835Z,14.27
2023-01-22T07:43:26.852Z,17.30
2023-01-22T07:45:54.161Z,16.17
2023-01-22T07:48:21.326Z,16.47
2023-01-22T07:50:48.427Z,17.33
2023-01-22T07:53:15.576Z,17.03
2023-01-22T07:55:42.691Z,16.73
2023-01-22T07:58:11.237Z,16.20
2023-01-22T08:00:38.303Z,15.70
2023-01-22T08:03:06.166Z,15.10
2023-01-22T08:05:33.429Z,16.63
2023-01-22T08:08:00.643Z,16.47
2023-01-22T08:10:27.977Z,14.53
2023-01-22T08:12:55.029Z,15.83
2023-01-22T08:15:22.685Z,16.60
2023-01-22T08:17:51.342Z,16.03
2023-01-22T08:20:19.145Z,16.13
2023-01-22T08:22:46.719Z,17.57
2023-01-22T08:25:13.916Z,18.30
2023-01-22T08:27:41.123Z,17.63
2023-01-22T08:30:11.428Z,16.27
2023-01-22T08:32:41.446Z,15.97
2023-01-22T08:35:09.302Z,15.60
2023-01-22T08:37:36.778Z,18.37
2023-01-22T08:40:05.353Z,17.43
2023-01-22T08:42:32.867Z,16.80
2023-01-22T08:45:00.052Z,18.23
2023-01-22T08:47:27.609Z,16.63
2023-01-22T08:49:54.576Z,17.63
2023-01-22T08:52:21.766Z,18.23
2023-01-22T08:54:49.000Z,18.37
2023-01-22T08:57:17.617Z,18.43
2023-01-22T08:59:52.550Z,18.33
2023-01-22T09:02:28.079Z,15.90
2023-01-22T09:04:55.287Z,15.03
2023-01-22T09:07:22.378Z,17.83
2023-01-22T09:09:49.608Z,17.30
2023-01-22T09:12:16.796Z,17.63
2023-01-22T09:14:44.859Z,15.57
2023-01-22T09:17:11.891Z,16.20
2023-01-22T09:19:38.902Z,18.57
2023-01-22T09:22:07.651Z,17.27
2023-01-22T09:24:34.703Z,16.40
2023-01-22T09:27:01.837Z,16.43
2023-01-22T09:29:29.097Z,17.73
2023-01-22T09:31:57.205Z,16.27
2023-01-22T09:34:24.339Z,17.93
2023-01-22T09:36:51.502Z,16.17
2023-01-22T09:39:18.698Z,17.40
2023-01-22T09:42:00.419Z,14.27
2023-01-22T09:44:38.581Z,18.33
2023-01-22T09:47:12.551Z,19.40
2023-01-22T09:50:05.568Z,20.67
2023-01-22T09:52:36.785Z,20.67
2023-01-22T09:55:06.206Z,17.87
2023-01-22T09:57:33.294Z,19.80
2023-01-22T10:00:00.571Z,21.13
2023-01-22T10:02:30.815Z,20.63
2023-01-22T10:05:23.771Z,18.07
2023-01-22T10:08:16.786Z,15.27
2023-01-22T10:10:43.939Z,19.23
2023-01-22T10:13:23.141Z,19.80
2023-01-22T10:15:56.789Z,19.53
2023-01-22T10:18:43.007Z,20.57
2023-01-22T10:21:26.525Z,20.90
2023-01-22T10:23:56.949Z,20.67
2023-01-22T10:26:38.431Z,19.27
2023-01-22T10:29:09.491Z,20.83
2023-01-22T10:31:41.204Z,20.57
2023-01-22T10:34:16.078Z,20.40
2023-01-22T10:36:50.596Z,21.37
2023-01-22T10:39:19.090Z,19.97
2023-01-22T10:41:47.363Z,20.37
2023-01-22T10:44:17.385Z,20.93
2023-01-22T10:46:46.552Z,19.83
2023-01-22T10:49:25.284Z,19.37
2023-01-22T10:51:56.212Z,20.30
2023-01-22T10:54:29.847Z,20.17
2023-01-22T10:57:17.353Z,21.97
2023-01-22T11:00:04.508Z,22.63
2023-01-22T11:02:35.510Z,22.77
2023-01-22T11:05:21.104Z,21.40
2023-01-22T11:08:10.032Z,21.33
2023-01-22T11:10:51.900Z,22.27
2023-01-22T11:13:50.875Z,20.93
2023-01-22T11:16:20.759Z,20.87
2023-01-22T11:19:16.774Z,20.10
2023-01-22T11:21:54.878Z,21.47
2023-01-22T11:24:33.402Z,21.20
2023-01-22T11:27:13.145Z,21.17
2023-01-22T11:29:58.516Z,20.43
2023-01-22T11:32:52.434Z,21.87
2023-01-22T11:35:25.926Z,18.50
2023-01-22T11:38:15.888Z,22.63
2023-01-22T11:41:07.103Z,22.17
2023-01-22T11:43:55.865Z,22.53
2023-01-22T11:46:23.098Z,23.43
2023-01-22T11:49:19.597Z,23.70
2023-01-22T11:51:54.840Z,21.53
2023-01-22T11:54:51.233Z,22.17
2023-01-22T11:57:24.628Z,24.43
2023-01-22T12:00:28.959Z,23.70
2023-01-22T12:03:14.119Z,25.07
2023-01-22T12:06:12.967Z,25.13
2023-01-22T12:09:00.427Z,24.77
2023-01-22T12:11:34.766Z,23.60
2023-01-22T12:14:37.169Z,24.37
2023-01-22T12:17:22.282Z,23.20
2023-01-22T12:20:34.037Z,24.23
2023-01-22T12:23:07.029Z,24.77
2023-01-22T12:25:40.861Z,23.47
2023-01-22T12:28:29.241Z,25.80
2023-01-22T12:31:08.562Z,26.00
2023-01-22T12:33:41.320Z,26.43
2023-01-22T12:36:16.500Z,27.73
2023-01-22T12:38:53.976Z,25.70
2023-01-22T12:41:52.612Z,26.97
2023-01-22T12:44:28.840Z,26.77
2023-01-22T12:46:58.757Z,24.37
2023-01-22T12:49:26.902Z,26.23
2023-01-22T12:51:55.661Z,25.60
2023-01-22T12:54:37.647Z,26.50
2023-01-22T12:57:20.811Z,26.70
2023-01-22T12:59:56.482Z,26.63
2023-01-22T13:02:30.545Z,26.20
2023-01-22T13:05:19.621Z,28.03
2023-01-22T13:07:47.639Z,24.80
2023-01-22T13:10:22.841Z,26.80
2023-01-22T13:13:00.962Z,29.40
2023-01-22T13:15:34.042Z,28.03
2023-01-22T13:18:08.039Z,27.37
2023-01-22T13:20:45.771Z,25.70
2023-01-22T13:23:14.979Z,27.60
2023-01-22T13:25:43.096Z,26.50
2023-01-22T13:28:17.053Z,29.07
2023-01-22T13:30:44.771Z,27.17
2023-01-22T13:33:16.578Z,26.63
2023-01-22T13:35:46.006Z,26.73
2023-01-22T13:38:20.617Z,27.63
2023-01-22T13:40:58.958Z,27.27
2023-01-22T13:43:27.543Z,26.67
2023-01-22T13:45:58.475Z,27.60
2023-01-22T13:48:27.334Z,24.60
2023-01-22T13:50:57.937Z,25.77
2023-01-22T13:53:30.248Z,25.53
2023-01-22T13:55:58.068Z,24.63
2023-01-22T13:58:49.382Z,26.70
2023-01-22T14:01:46.555Z,25.30
2023-01-22T14:04:34.897Z,24.00
2023-01-22T14:07:02.245Z,25.90
2023-01-22T14:09:37.684Z,24.53
2023-01-22T14:12:22.737Z,24.67
2023-01-22T14:14:50.111Z,23.83
2023-01-22T14:17:35.460Z,23.97
2023-01-22T14:20:04.485Z,24.40
2023-01-22T14:22:31.603Z,23.83
2023-01-22T14:24:58.744Z,24.67
2023-01-22T14:27:49.669Z,24.47
2023-01-22T14:30:19.586Z,23.43
2023-01-22T14:32:47.122Z,26.67
2023-01-22T14:35:22.622Z,25.23
2023-01-22T14:37:50.314Z,25.13
2023-01-22T14:40:19.095Z,26.67
2023-01-22T14:42:47.027Z,25.80
2023-01-22T14:45:16.612Z,26.70
2023-01-22T14:47:44.122Z,26.43
2023-01-22T14:50:11.848Z,25.17
2023-01-22T14:52:39.144Z,27.00
2023-01-22T14:55:06.562Z,28.23
2023-01-22T14:57:33.623Z,27.20
2023-01-22T15:00:02.522Z,26.00
2023-01-22T15:02:29.688Z,28.50
2023-01-22T15:04:56.918Z,26.03
2023-01-22T15:07:23.988Z,27.23
2023-01-22T15:09:51.005Z,26.00
2023-01-22T15:12:18.460Z,28.30
2023-01-22T15:14:45.545Z,29.17
2023-01-22T15:17:12.495Z,27.20
2023-01-22T15:19:41.586Z,29.87
2023-01-22T15:22:09.421Z,27.60
2023-01-22T15:24:39.405Z,26.93
2023-01-22T15:27:07.308Z,27.53
2023-01-22T15:29:34.308Z,27.77
2023-01-22T15:32:01.429Z,27.20
2023-01-22T15:34:28.444Z,26.70
2023-01-22T15:36:55.546Z,29.37
2023-01-22T15:39:22.680Z,28.73
2023-01-22T15:41:49.848Z,26.63
2023-01-22T15:44:16.909Z,27.73
2023-01-22T15:46:44.603Z,27.60
2023-01-22T15:49:13.243Z,27.60
2023-01-22T15:51:41.515Z,26.57
2023-01-22T15:54:13.200Z,27.07
2023-01-22T15:56:40.481Z,26.63
2023-01-22T15:59:07.777Z,27.37
2023-01-22T16:01:35.563Z,28.37
2023-01-22T16:04:03.907Z,27.07
2023-01-22T16:06:33.409Z,28.03
2023-01-22T16:09:02.761Z,27.87
2023-01-22T16:11:30.997Z,27.77
2023-01-22T16:13:59.265Z,27.33
2023-01-22T16:16:36.433Z,27.37
2023-01-22T16:19:06.364Z,27.60
2023-01-22T16:21:33.834Z,27.03
2023-01-22T16:24:01.864Z,27.70
2023-01-22T16:26:31.553Z,28.63
2023-01-22T16:29:00.507Z,26.17
2023-01-22T16:31:30.761Z,27.23
2023-01-22T16:34:00.476Z,27.40
2023-01-22T16:36:29.839Z,27.47
2023-01-22T16:38:56.971Z,26.30
2023-01-22T16:41:28.015Z,27.23
2023-01-22T16:44:17.145Z,26.83
2023-01-22T16:46:49.627Z,28.70
2023-01-22T16:49:19.687Z,26.87
2023-01-22T16:51:52.526Z,26.53
2023-01-22T16:54:29.887Z,27.77
2023-01-22T16:56:58.921Z,26.33
2023-01-22T16:59:27.294Z,27.00
2023-01-22T17:01:55.650Z,26.87
2023-01-22T17:04:22.890Z,27.73
2023-01-22T17:06:52.549Z,25.77
2023-01-22T17:09:26.678Z,27.83
2023-01-22T17:11:56.676Z,29.33
2023-01-22T17:14:26.577Z,28.00
2023-01-22T17:16:53.672Z,28.23
2023-01-22T17:19:20.613Z,27.13
2023-01-22T17:21:50.273Z,26.40
2023-01-22T17:24:17.556Z,26.77
2023-01-22T17:26:45.975Z,27.23
2023-01-22T17:29:14.045Z,28.20
2023-01-22T17:31:41.448Z,26.37
2023-01-22T17:34:11.086Z,26.37
2023-01-22T17:36:39.542Z,27.27
2023-01-22T17:39:07.539Z,27.30
2023-01-22T17:41:34.738Z,27.70
2023-01-22T17:44:01.958Z,28.67
2023-01-22T17:46:32.037Z,28.43
2023-01-22T17:49:01.191Z,27.33
2023-01-22T17:51:30.530Z,27.47
2023-01-22T17:53:59.324Z,27.00
2023-01-22T17:56:40.285Z,27.73
2023-01-22T17:59:12.069Z,26.43
2023-01-22T18:01:40.530Z,28.07
2023-01-22T18:04:12.045Z,27.37
2023-01-22T18:06:40.808Z,28.43
2023-01-22T18:09:10.029Z,27.00
2023-01-22T18:11:38.029Z,29.27
2023-01-22T18:14:08.415Z,28.43
2023-01-22T18:16:38.349Z,29.27
2023-01-22T18:19:07.527Z,28.83
2023-01-22T18:21:36.178Z,30.20
2023-01-22T18:24:05.368Z,28.57
2023-01-22T18:26:32.641Z,26.93
2023-01-22T18:29:00.132Z,28.97
2023-01-22T18:31:28.878Z,29.10
2023-01-22T18:34:01.170Z,29.90
2023-01-22T18:36:31.335Z,29.60
2023-01-22T18:39:04.126Z,29.30
2023-01-22T18:41:31.495Z,30.10
2023-01-22T18:44:01.644Z,30.43
2023-01-22T18:46:33.811Z,28.97
2023-01-22T18:49:04.032Z,31.43
2023-01-22T18:51:33.045Z,31.17
2023-01-22T18:54:01.947Z,30.43
2023-01-22T18:56:28.900Z,30.27
2023-01-22T18:58:57.521Z,30.33
2023-01-22T19:01:30.900Z,31.87
2023-01-22T19:04:01.077Z,30.07
2023-01-22T19:06:31.140Z,29.27
2023-01-22T19:09:07.243Z,30.37
2023-01-22T19:11:37.249Z,31.90
2023-01-22T19:14:07.277Z,29.33
2023-01-22T19:16:34.918Z,30.70
2023-01-22T19:19:11.456Z,30.13
2023-01-22T19:21:40.438Z,31.23
2023-01-22T19:24:08.883Z,29.93
2023-01-22T19:26:37.277Z,29.13
2023-01-22T19:29:13.471Z,29.33
2023-01-22T19:31:43.314Z,29.70
2023-01-22T19:34:12.952Z,30.20
2023-01-22T19:36:40.139Z,28.37
2023-01-22T19:39:12.333Z,28.00
2023-01-22T19:41:42.973Z,28.07
2023-01-22T19:44:11.490Z,27.63
2023-01-22T19:46:39.684Z,27.90
2023-01-22T19:49:08.091Z,30.30
2023-01-22T19:51:35.406Z,29.83
2023-01-22T19:54:04.756Z,29.10
2023-01-22T19:56:35.839Z,27.97
2023-01-22T19:59:14.613Z,29.33
2023-01-22T20:01:42.759Z,28.10
2023-01-22T20:04:14.462Z,28.57
2023-01-22T20:06:41.792Z,29.60
2023-01-22T20:09:08.868Z,29.83
2023-01-22T20:11:35.963Z,30.20
2023-01-22T20:14:03.240Z,30.57
2023-01-22T20:16:30.548Z,30.43
2023-01-22T20:18:58.490Z,30.97
2023-01-22T20:21:27.036Z,29.47
2023-01-22T20:23:54.959Z,30.90
2023-01-22T20:26:23.095Z,32.60
2023-01-22T20:28:50.606Z,33.13
2023-01-22T20:31:23.161Z,31.80
2023-01-22T20:33:52.675Z,31.80
2023-01-22T20:36:21.183Z,29.87
2023-01-22T20:38:52.531Z,33.10
2023-01-22T20:41:20.961Z,32.77
2023-01-22T20:43:48.332Z,33.10
2023-01-22T20:46:19.812Z,33.27
2023-01-22T20:48:47.538Z,32.27
2023-01-22T20:51:17.749Z,28.37
2023-01-22T20:53:46.500Z,31.47
2023-01-22T20:56:16.791Z,33.30
2023-01-22T20:58:44.074Z,31.77
2023-01-22T21:01:18.743Z,30.67
2023-01-22T21:03:47.568Z,31.23
2023-01-22T21:06:17.248Z,31.07
2023-01-22T21:08:47.695Z,31.07
2023-01-22T21:11:18.007Z,30.50
2023-01-22T21:13:45.231Z,31.00
2023-01-22T21:16:17.719Z,30.90
2023-01-22T21:18:46.398Z,30.57
2023-01-22T21:21:18.068Z,30.03
2023-01-22T21:23:47.922Z,28.97
2023-01-22T21:26:22.948Z,29.73
2023-01-22T21:28:53.566Z,29.17
2023-01-22T21:31:21.967Z,30.03
2023-01-22T21:33:49.680Z,29.20
2023-01-22T21:36:18.476Z,28.83
2023-01-22T21:38:48.748Z,29.33
2023-01-22T21:41:17.807Z,26.83
2023-01-22T21:44:06.189Z,26.23
2023-01-22T21:46:40.673Z,26.70
2023-01-22T21:49:24.465Z,25.83
2023-01-22T21:51:57.274Z,22.97
2023-01-22T21:54:29.842Z,26.60
2023-01-22T21:56:57.223Z,24.07
2023-01-22T21:59:24.932Z,25.27
2023-01-22T22:01:54.775Z,25.53
2023-01-22T22:04:24.503Z,24.77
2023-01-22T22:06:52.112Z,26.53
2023-01-22T22:09:22.171Z,24.73
2023-01-22T22:11:49.646Z,24.00
2023-01-22T22:14:21.876Z,24.23
2023-01-22T22:16:49.416Z,25.03
2023-01-22T22:19:17.639Z,25.63
2023-01-22T22:21:45.246Z,24.70
2023-01-22T22:24:12.757Z,24.80
2023-01-22T22:26:40.732Z,24.27
2023-01-22T22:29:09.143Z,25.73
2023-01-22T22:31:37.359Z,23.97
2023-01-22T22:34:05.211Z,25.50
2023-01-22T22:36:33.187Z,22.50
2023-01-22T22:39:01.705Z,23.60
2023-01-22T22:41:31.054Z,25.30
2023-01-22T22:43:58.450Z,24.77
2023-01-22T22:46:28.206Z,25.73
2023-01-22T22:48:57.790Z,24.17
2023-01-22T22:51:32.096Z,24.90
2023-01-22T22:54:05.561Z,25.10
2023-01-22T22:56:32.802Z,25.57
2023-01-22T22:59:01.351Z,25.10
2023-01-22T23:01:29.500Z,24.10
2023-01-22T23:03:56.676Z,25.23
2023-01-22T23:06:29.766Z,25.80
2023-01-22T23:09:10.954Z,25.83
2023-01-22T23:11:38.266Z,25.33
2023-01-22T23:14:05.697Z,25.47
2023-01-22T23:16:38.878Z,25.07
2023-01-22T23:19:09.221Z,25.80
2023-01-22T23:21:40.780Z,22.60
2023-01-22T23:24:12.953Z,23.20
2023-01-22T23:26:41.604Z,24.13
2023-01-22T23:29:11.148Z,20.80
2023-01-22T23:31:39.457Z,23.03
2023-01-22T23:34:10.099Z,22.00
2023-01-22T23:36:38.776Z,23.60
2023-01-22T23:39:05.775Z,23.03
2023-01-22T23:41:32.900Z,23.63
2023-01-22T23:43:59.946Z,22.77
2023-01-22T23:46:28.566Z,23.37
2023-01-22T23:48:57.675Z,23.53
2023-01-22T23:51:25.586Z,22.47
2023-01-22T23:53:53.697Z,23.33
2023-01-22T23:56:23.331Z,23.30
2023-01-22T23:58:53.091Z,22.93
